Scout — WCZ2046 — position and weather

sailwx.info

Track history (hours):
 
Tides and Currents Weather Stations Pressure Air Temp Water Temp Dewpoint Dewpoint Depression Visibility Wind Speed Wind Dir Waves Ship Positions

Scout

Owner: Crowley Marine Services, SEATTLE, WA. More information available from US FCC via Universal Licensing System and Coast Guard Vessel Documentation Center.

Last reported at 2017-Aug-22 00:45 UTC. Time now 2017-Aug-22 11:03 UTC.
Position N 32°42' W 117°09'.

; draft 5.6 m.

Type: Tug. MMSI: 366764730.

Date/timePositionNaut miles runAvg speedWind from/ knotsBaromVisibWave heightAir tempDewpointWater temp
2017-Aug-22 00:45N 32°42' W 117°09'0 0.0
2017-Aug-22 00:30N 32°42' W 117°09'0 0.4
2017-Aug-21 23:56N 32°42' W 117°10'1 1.3
2017-Aug-21 23:30N 32°42' W 117°10'0 1.0
2017-Aug-21 23:00N 32°43' W 117°11'1 1.8
2017-Aug-21 22:26N 32°42' W 117°10'0 0.0
2017-Aug-21 21:59N 32°42' W 117°10'0 0.0
2017-Aug-21 21:28N 32°42' W 117°10'4 7.1
2017-Aug-21 20:58N 32°39' W 117°07'2 4.1
2017-Aug-21 20:30N 32°41' W 117°08'1 0.2
2017-Aug-21 14:01N 32°42' W 117°09'0 0.4
2017-Aug-21 14:00N 32°42' W 117°09'3 3.1
2017-Aug-21 13:09N 32°40' W 117°07'1 6.6
2017-Aug-21 13:00N 32°40' W 117°08'2 0.1
2017-Aug-20 16:44N 32°42' W 117°09'1 0.8
2017-Aug-20 15:47N 32°41' W 117°09'1 0.1
2017-Aug-20 04:46N 32°42' W 117°09'1 0.4
2017-Aug-20 03:02N 32°41' W 117°09'0 1.2
2017-Aug-20 02:50N 32°41' W 117°08'0 0.2
2017-Aug-20 02:30N 32°41' W 117°08'0 0.1
2017-Aug-20 01:29N 32°41' W 117°08'1 0.7
2017-Aug-20 00:09N 32°42' W 117°09'0 3.2
2017-Aug-20 00:00N 32°42' W 117°10'1 0.1
2017-Aug-19 13:59N 32°41' W 117°09'2 4.6
2017-Aug-19 13:30N 32°39' W 117°07'2 3.6
2017-Aug-19 12:58N 32°41' W 117°08'1 1.7
2017-Aug-19 12:19N 32°42' W 117°09'0 0.0
2017-Aug-18 17:23N 32°42' W 117°09'0 0.2
2017-Aug-18 16:57N 32°42' W 117°09'0 0.4
2017-Aug-18 16:10N 32°42' W 117°10'0 0.0
2017-Aug-18 15:53N 32°42' W 117°10'0 0.4
2017-Aug-18 14:54N 32°42' W 117°09'1 1.3
2017-Aug-18 14:20N 32°41' W 117°08'1 0.8
2017-Aug-18 13:22N 32°42' W 117°09'0 0.0
2017-Aug-18 13:00N 32°42' W 117°09'0 0.0
2017-Aug-18 12:30N 32°42' W 117°09'0 0.0
2017-Aug-18 09:56N 32°42' W 117°09'0 0.0
2017-Aug-18 09:16N 32°42' W 117°09'0 0.0
2017-Aug-17 18:57N 32°42' W 117°09'0 0.0
2017-Aug-17 16:58N 32°42' W 117°09'0 0.0
2017-Aug-17 16:27N 32°42' W 117°09'1 1.5
2017-Aug-17 16:00N 32°42' W 117°10'3 6.9
2017-Aug-17 15:31N 32°42' W 117°14'0 1.0
2017-Aug-17 15:01N 32°42' W 117°14'3 5.0
2017-Aug-17 14:30N 32°43' W 117°11'2 2.7
2017-Aug-17 13:40N 32°42' W 117°09'0 0.3
2017-Aug-17 13:29N 32°42' W 117°09'0 0.0
2017-Aug-17 12:56N 32°42' W 117°09'2 2.6
2017-Aug-17 12:20N 32°41' W 117°08'1 3.7
2017-Aug-17 11:56N 32°39' W 117°07'2 5.6
2017-Aug-17 11:30N 32°41' W 117°09'0 0.4
2017-Aug-17 10:09N 32°42' W 117°09'0 0.3
2017-Aug-17 10:00N 32°42' W 117°09'0 0.1
2017-Aug-17 09:30N 32°42' W 117°09'0 0.0
2017-Aug-17 09:00N 32°42' W 117°09'0 0.0
2017-Aug-17 07:55N 32°42' W 117°09'0 0.0
2017-Aug-17 05:30N 32°42' W 117°09'0 0.0
2017-Aug-17 04:58N 32°42' W 117°09'0 0.0
2017-Aug-16 23:17N 32°42' W 117°09'2 8.0
2017-Aug-16 23:00N 32°40' W 117°08'1 0.9
2017-Aug-16 22:24N 32°39' W 117°07'2 3.7
2017-Aug-16 21:53N 32°41' W 117°09'1 0.2
2017-Aug-16 16:20N 32°42' W 117°09'0 0.1
2017-Aug-16 15:57N 32°42' W 117°09'3 7.5
2017-Aug-16 15:30N 32°43' W 117°13'2 3.0
2017-Aug-16 15:00N 32°42' W 117°14'1 1.7
2017-Aug-16 14:30N 32°41' W 117°14'2 3.5
2017-Aug-16 14:00N 32°39' W 117°13'3 6.5
2017-Aug-16 13:30N 32°43' W 117°13'4 1.2
2017-Aug-16 10:26N 32°42' W 117°09'3 6.9
2017-Aug-16 10:00N 32°39' W 117°07'0 0.1
2017-Aug-16 09:30N 32°39' W 117°07'3 6.8
2017-Aug-16 09:00N 32°42' W 117°10'3 7.0
2017-Aug-16 08:31N 32°42' W 117°14'4 8.1
2017-Aug-16 08:01N 32°38' W 117°15'510.8
2017-Aug-16 07:30N 32°42' W 117°19'510.7
2017-Aug-16 07:00N 32°47' W 117°23'510.7
2017-Aug-16 06:30N 32°51' W 117°27'510.9
2017-Aug-16 06:00N 32°55' W 117°31'611.2
2017-Aug-16 05:31N 32°60' W 117°35'611.2
2017-Aug-16 05:00N 33°04' W 117°39'611.2
2017-Aug-16 04:30N 33°09' W 117°43'611.1
2017-Aug-16 04:00N 33°13' W 117°47'611.3
2017-Aug-16 03:30N 33°18' W 117°51'611.3
2017-Aug-16 03:00N 33°22' W 117°55'611.3
2017-Aug-16 02:31N 33°27' W 117°59'611.2
2017-Aug-16 02:01N 33°31' W 118°03'510.8
2017-Aug-16 01:30N 33°35' W 118°07'510.6
2017-Aug-16 01:00N 33°39' W 118°11'510.1
2017-Aug-16 00:30N 33°43' W 118°16'2 4.5
2017-Aug-16 00:00N 33°45' W 118°16'0 0.5
2017-Aug-15 23:30N 33°45' W 118°16'1 1.4
2017-Aug-15 23:00N 33°46' W 118°16'1 1.3
2017-Aug-15 22:30N 33°45' W 118°16'2 3.2
2017-Aug-15 22:00N 33°44' W 118°16'2 4.2
2017-Aug-15 21:30N 33°43' W 118°14'2 3.6
2017-Aug-15 21:01N 33°45' W 118°14'1 1.9
2017-Aug-15 20:30N 33°45' W 118°13'2 3.7
2017-Aug-15 20:00N 33°44' W 118°12'0 0.6
2017-Aug-15 19:30N 33°44' W 118°12'4 7.4
2017-Aug-15 19:00N 33°43' W 118°16'1 2.3
2017-Aug-15 18:30N 33°44' W 118°17'0 0.0
2017-Aug-15 18:00N 33°44' W 118°17'0 0.0
2017-Aug-15 17:29N 33°44' W 118°17'0 0.0
2017-Aug-15 17:00N 33°44' W 118°17'0 0.0
2017-Aug-15 16:30N 33°44' W 118°17'0 0.0
2017-Aug-15 15:59N 33°44' W 118°17'0 0.0
2017-Aug-15 15:29N 33°44' W 118°17'0 0.0
2017-Aug-15 14:59N 33°44' W 118°17'0 0.0
2017-Aug-15 14:24N 33°44' W 118°17'0 0.0
2017-Aug-15 14:00N 33°44' W 118°17'0 0.0
2017-Aug-15 13:29N 33°44' W 118°17'0 0.0
2017-Aug-15 12:59N 33°44' W 118°17'0 0.4
2017-Aug-15 12:30N 33°44' W 118°17'3 5.5
2017-Aug-15 12:00N 33°44' W 118°13'2 3.1
2017-Aug-15 11:30N 33°45' W 118°14'0 0.0
2017-Aug-15 11:00N 33°45' W 118°14'0 0.8
2017-Aug-15 10:30N 33°45' W 118°14'3 5.5
2017-Aug-15 09:59N 33°44' W 118°11'3 5.3
2017-Aug-15 09:28N 33°41' W 118°09'1411.0
2017-Aug-15 08:13N 33°30' W 117°60'210.6
2017-Aug-15 08:00N 33°28' W 117°58'510.7
2017-Aug-15 07:31N 33°24' W 117°54'510.4
2017-Aug-15 07:00N 33°20' W 117°51'510.4
2017-Aug-15 06:30N 33°16' W 117°47'510.3
2017-Aug-15 06:01N 33°11' W 117°43'510.2
2017-Aug-15 05:30N 33°07' W 117°40'510.1
2017-Aug-15 05:01N 33°03' W 117°36'5 9.9
2017-Aug-15 04:30N 32°59' W 117°33'510.0
2017-Aug-15 04:00N 32°55' W 117°30'510.4
2017-Aug-15 03:30N 32°51' W 117°26'510.6
2017-Aug-15 03:00N 32°46' W 117°23'510.5
2017-Aug-15 02:30N 32°42' W 117°19'510.3
2017-Aug-15 02:01N 32°38' W 117°15'4 8.7
2017-Aug-15 01:31N 32°42' W 117°14'4 1.8
2017-Aug-14 23:15N 32°42' W 117°09'2 7.6
2017-Aug-14 22:59N 32°40' W 117°08'1 1.9
2017-Aug-14 22:24N 32°39' W 117°07'2 4.9
2017-Aug-14 21:59N 32°41' W 117°08'1 0.8
2017-Aug-14 20:49N 32°42' W 117°09'0 0.0
2017-Aug-14 20:30N 32°42' W 117°09'0 0.0
2017-Aug-14 17:55N 32°42' W 117°09'0 0.3
2017-Aug-14 17:22N 32°42' W 117°09'0 0.3
2017-Aug-14 16:53N 32°42' W 117°09'2 3.9
2017-Aug-14 16:26N 32°40' W 117°08'0 0.8
2017-Aug-14 15:55N 32°40' W 117°07'0 0.7
2017-Aug-14 15:30N 32°40' W 117°08'2 1.8
2017-Aug-14 14:31N 32°42' W 117°09'0 0.1
2017-Aug-14 13:36N 32°42' W 117°09'1 7.8
2017-Aug-14 13:28N 32°41' W 117°08'2 4.1
2017-Aug-14 13:00N 32°39' W 117°07'1 3.0
2017-Aug-14 12:30N 32°41' W 117°08'1 0.4
2017-Aug-14 08:58N 32°42' W 117°09'0 0.1
2017-Aug-14 08:27N 32°42' W 117°09'0 0.1
2017-Aug-14 07:56N 32°42' W 117°09'0 0.0
2017-Aug-14 06:55N 32°42' W 117°09'0 0.1
2017-Aug-14 06:30N 32°42' W 117°09'0 0.1
2017-Aug-14 05:57N 32°42' W 117°09'0 0.0
2017-Aug-14 05:30N 32°42' W 117°09'0 0.0
2017-Aug-14 05:00N 32°42' W 117°09'0 0.0
2017-Aug-14 04:29N 32°42' W 117°09'0 0.0
2017-Aug-14 03:39N 32°42' W 117°09'0 0.0
2017-Aug-14 03:30N 32°42' W 117°09'0 0.0
2017-Aug-14 03:00N 32°42' W 117°09'0 0.0
2017-Aug-14 01:16N 32°42' W 117°09'0 0.0
2017-Aug-14 00:19N 32°42' W 117°09'0 0.0
2017-Aug-14 00:00N 32°42' W 117°09'0 0.0
2017-Aug-13 23:30N 32°42' W 117°09'0 0.0
2017-Aug-13 23:00N 32°42' W 117°09'0 0.0
2017-Aug-13 22:29N 32°42' W 117°09'0 0.0
2017-Aug-13 21:54N 32°42' W 117°09'0 0.0
2017-Aug-13 21:03N 32°42' W 117°09'0 0.0
2017-Aug-13 21:00N 32°42' W 117°09'0 0.0
2017-Aug-13 20:30N 32°42' W 117°09'0 0.0
2017-Aug-13 10:39N 32°42' W 117°09'0 0.0
2017-Aug-13 05:42N 32°42' W 117°09'0 0.0
2017-Aug-13 05:29N 32°42' W 117°09'0 0.0
2017-Aug-13 05:00N 32°42' W 117°09'0 0.0
2017-Aug-13 04:24N 32°42' W 117°09'0 0.0
2017-Aug-13 01:31N 32°42' W 117°09'0 7.4
2017-Aug-13 01:29N 32°41' W 117°09'3 2.3
2017-Aug-13 00:23N 32°39' W 117°07'2 3.4
2017-Aug-12 23:53N 32°41' W 117°08'1 2.1
2017-Aug-12 23:18N 32°42' W 117°09'0 0.0
2017-Aug-12 21:47N 32°42' W 117°09'0 0.0
2017-Aug-12 21:22N 32°42' W 117°09'0 0.0
2017-Aug-12 20:58N 32°42' W 117°09'0 0.0
2017-Aug-12 14:10N 32°42' W 117°09'1 7.9
2017-Aug-12 14:00N 32°41' W 117°08'1 1.3
2017-Aug-12 13:14N 32°40' W 117°08'2 8.6
2017-Aug-12 12:59N 32°42' W 117°09'0 0.1
2017-Aug-12 09:38N 32°42' W 117°09'0 0.0
2017-Aug-12 05:15N 32°42' W 117°09'0 0.0
2017-Aug-12 04:17N 32°42' W 117°09'0 0.0
2017-Aug-12 03:39N 32°42' W 117°09'0 0.0
2017-Aug-12 03:30N 32°42' W 117°09'0 0.0
2017-Aug-12 01:05N 32°42' W 117°09'0 0.0
2017-Aug-12 01:00N 32°42' W 117°09'  
Track history (hours):
 
Tides and Currents Weather Stations Pressure Air Temp Water Temp Dewpoint Dewpoint Depression Visibility Wind Speed Wind Dir Waves Ship Positions

Scout

Owner: Crowley Marine Services, SEATTLE, WA. More information available from US FCC via Universal Licensing System and Coast Guard Vessel Documentation Center.

Last reported at 2017-Aug-22 00:45 UTC. Time now 2017-Aug-22 11:03 UTC.
Position N 32°42' W 117°09'.

; draft 5.6 m.

Type: Tug. MMSI: 366764730.

Date/timePositionNaut miles runAvg speedWind from/ knotsBaromVisibWave heightAir tempDewpointWater temp
2017-Aug-22 00:45N 32°42' W 117°09'0 0.0
2017-Aug-22 00:30N 32°42' W 117°09'0 0.4
2017-Aug-21 23:56N 32°42' W 117°10'1 1.3
2017-Aug-21 23:30N 32°42' W 117°10'0 1.0
2017-Aug-21 23:00N 32°43' W 117°11'1 1.8
2017-Aug-21 22:26N 32°42' W 117°10'0 0.0
2017-Aug-21 21:59N 32°42' W 117°10'0 0.0
2017-Aug-21 21:28N 32°42' W 117°10'4 7.1
2017-Aug-21 20:58N 32°39' W 117°07'2 4.1
2017-Aug-21 20:30N 32°41' W 117°08'1 0.2
2017-Aug-21 14:01N 32°42' W 117°09'0 0.4
2017-Aug-21 14:00N 32°42' W 117°09'3 3.1
2017-Aug-21 13:09N 32°40' W 117°07'1 6.6
2017-Aug-21 13:00N 32°40' W 117°08'2 0.1
2017-Aug-20 16:44N 32°42' W 117°09'1 0.8
2017-Aug-20 15:47N 32°41' W 117°09'1 0.1
2017-Aug-20 04:46N 32°42' W 117°09'1 0.4
2017-Aug-20 03:02N 32°41' W 117°09'0 1.2
2017-Aug-20 02:50N 32°41' W 117°08'0 0.2
2017-Aug-20 02:30N 32°41' W 117°08'0 0.1
2017-Aug-20 01:29N 32°41' W 117°08'1 0.7
2017-Aug-20 00:09N 32°42' W 117°09'0 3.2
2017-Aug-20 00:00N 32°42' W 117°10'1 0.1
2017-Aug-19 13:59N 32°41' W 117°09'2 4.6
2017-Aug-19 13:30N 32°39' W 117°07'2 3.6
2017-Aug-19 12:58N 32°41' W 117°08'1 1.7
2017-Aug-19 12:19N 32°42' W 117°09'0 0.0
2017-Aug-18 17:23N 32°42' W 117°09'0 0.2
2017-Aug-18 16:57N 32°42' W 117°09'0 0.4
2017-Aug-18 16:10N 32°42' W 117°10'0 0.0
2017-Aug-18 15:53N 32°42' W 117°10'0 0.4
2017-Aug-18 14:54N 32°42' W 117°09'1 1.3
2017-Aug-18 14:20N 32°41' W 117°08'1 0.8
2017-Aug-18 13:22N 32°42' W 117°09'0 0.0
2017-Aug-18 13:00N 32°42' W 117°09'0 0.0
2017-Aug-18 12:30N 32°42' W 117°09'0 0.0
2017-Aug-18 09:56N 32°42' W 117°09'0 0.0
2017-Aug-18 09:16N 32°42' W 117°09'0 0.0
2017-Aug-17 18:57N 32°42' W 117°09'0 0.0
2017-Aug-17 16:58N 32°42' W 117°09'0 0.0
2017-Aug-17 16:27N 32°42' W 117°09'1 1.5
2017-Aug-17 16:00N 32°42' W 117°10'3 6.9
2017-Aug-17 15:31N 32°42' W 117°14'0 1.0
2017-Aug-17 15:01N 32°42' W 117°14'3 5.0
2017-Aug-17 14:30N 32°43' W 117°11'2 2.7
2017-Aug-17 13:40N 32°42' W 117°09'0 0.3
2017-Aug-17 13:29N 32°42' W 117°09'0 0.0
2017-Aug-17 12:56N 32°42' W 117°09'2 2.6
2017-Aug-17 12:20N 32°41' W 117°08'1 3.7
2017-Aug-17 11:56N 32°39' W 117°07'2 5.6
2017-Aug-17 11:30N 32°41' W 117°09'0 0.4
2017-Aug-17 10:09N 32°42' W 117°09'0 0.3
2017-Aug-17 10:00N 32°42' W 117°09'0 0.1
2017-Aug-17 09:30N 32°42' W 117°09'0 0.0
2017-Aug-17 09:00N 32°42' W 117°09'0 0.0
2017-Aug-17 07:55N 32°42' W 117°09'0 0.0
2017-Aug-17 05:30N 32°42' W 117°09'0 0.0
2017-Aug-17 04:58N 32°42' W 117°09'0 0.0
2017-Aug-16 23:17N 32°42' W 117°09'2 8.0
2017-Aug-16 23:00N 32°40' W 117°08'1 0.9
2017-Aug-16 22:24N 32°39' W 117°07'2 3.7
2017-Aug-16 21:53N 32°41' W 117°09'1 0.2
2017-Aug-16 16:20N 32°42' W 117°09'0 0.1
2017-Aug-16 15:57N 32°42' W 117°09'3 7.5
2017-Aug-16 15:30N 32°43' W 117°13'2 3.0
2017-Aug-16 15:00N 32°42' W 117°14'1 1.7
2017-Aug-16 14:30N 32°41' W 117°14'2 3.5
2017-Aug-16 14:00N 32°39' W 117°13'3 6.5
2017-Aug-16 13:30N 32°43' W 117°13'4 1.2
2017-Aug-16 10:26N 32°42' W 117°09'3 6.9
2017-Aug-16 10:00N 32°39' W 117°07'0 0.1
2017-Aug-16 09:30N 32°39' W 117°07'3 6.8
2017-Aug-16 09:00N 32°42' W 117°10'3 7.0
2017-Aug-16 08:31N 32°42' W 117°14'4 8.1
2017-Aug-16 08:01N 32°38' W 117°15'510.8
2017-Aug-16 07:30N 32°42' W 117°19'510.7
2017-Aug-16 07:00N 32°47' W 117°23'510.7
2017-Aug-16 06:30N 32°51' W 117°27'510.9
2017-Aug-16 06:00N 32°55' W 117°31'611.2
2017-Aug-16 05:31N 32°60' W 117°35'611.2
2017-Aug-16 05:00N 33°04' W 117°39'611.2
2017-Aug-16 04:30N 33°09' W 117°43'611.1
2017-Aug-16 04:00N 33°13' W 117°47'611.3
2017-Aug-16 03:30N 33°18' W 117°51'611.3
2017-Aug-16 03:00N 33°22' W 117°55'611.3
2017-Aug-16 02:31N 33°27' W 117°59'611.2
2017-Aug-16 02:01N 33°31' W 118°03'510.8
2017-Aug-16 01:30N 33°35' W 118°07'510.6
2017-Aug-16 01:00N 33°39' W 118°11'510.1
2017-Aug-16 00:30N 33°43' W 118°16'2 4.5
2017-Aug-16 00:00N 33°45' W 118°16'0 0.5
2017-Aug-15 23:30N 33°45' W 118°16'1 1.4
2017-Aug-15 23:00N 33°46' W 118°16'1 1.3
2017-Aug-15 22:30N 33°45' W 118°16'2 3.2
2017-Aug-15 22:00N 33°44' W 118°16'2 4.2
2017-Aug-15 21:30N 33°43' W 118°14'2 3.6
2017-Aug-15 21:01N 33°45' W 118°14'1 1.9
2017-Aug-15 20:30N 33°45' W 118°13'2 3.7
2017-Aug-15 20:00N 33°44' W 118°12'0 0.6
2017-Aug-15 19:30N 33°44' W 118°12'4 7.4
2017-Aug-15 19:00N 33°43' W 118°16'1 2.3
2017-Aug-15 18:30N 33°44' W 118°17'0 0.0
2017-Aug-15 18:00N 33°44' W 118°17'0 0.0
2017-Aug-15 17:29N 33°44' W 118°17'0 0.0
2017-Aug-15 17:00N 33°44' W 118°17'0 0.0
2017-Aug-15 16:30N 33°44' W 118°17'0 0.0
2017-Aug-15 15:59N 33°44' W 118°17'0 0.0
2017-Aug-15 15:29N 33°44' W 118°17'0 0.0
2017-Aug-15 14:59N 33°44' W 118°17'0 0.0
2017-Aug-15 14:24N 33°44' W 118°17'0 0.0
2017-Aug-15 14:00N 33°44' W 118°17'0 0.0
2017-Aug-15 13:29N 33°44' W 118°17'0 0.0
2017-Aug-15 12:59N 33°44' W 118°17'0 0.4
2017-Aug-15 12:30N 33°44' W 118°17'3 5.5
2017-Aug-15 12:00N 33°44' W 118°13'2 3.1
2017-Aug-15 11:30N 33°45' W 118°14'0 0.0
2017-Aug-15 11:00N 33°45' W 118°14'0 0.8
2017-Aug-15 10:30N 33°45' W 118°14'3 5.5
2017-Aug-15 09:59N 33°44' W 118°11'3 5.3
2017-Aug-15 09:28N 33°41' W 118°09'1411.0
2017-Aug-15 08:13N 33°30' W 117°60'210.6
2017-Aug-15 08:00N 33°28' W 117°58'510.7
2017-Aug-15 07:31N 33°24' W 117°54'510.4
2017-Aug-15 07:00N 33°20' W 117°51'510.4
2017-Aug-15 06:30N 33°16' W 117°47'510.3
2017-Aug-15 06:01N 33°11' W 117°43'510.2
2017-Aug-15 05:30N 33°07' W 117°40'510.1
2017-Aug-15 05:01N 33°03' W 117°36'5 9.9
2017-Aug-15 04:30N 32°59' W 117°33'510.0
2017-Aug-15 04:00N 32°55' W 117°30'510.4
2017-Aug-15 03:30N 32°51' W 117°26'510.6
2017-Aug-15 03:00N 32°46' W 117°23'510.5
2017-Aug-15 02:30N 32°42' W 117°19'510.3
2017-Aug-15 02:01N 32°38' W 117°15'4 8.7
2017-Aug-15 01:31N 32°42' W 117°14'4 1.8
2017-Aug-14 23:15N 32°42' W 117°09'2 7.6
2017-Aug-14 22:59N 32°40' W 117°08'1 1.9
2017-Aug-14 22:24N 32°39' W 117°07'2 4.9
2017-Aug-14 21:59N 32°41' W 117°08'1 0.8
2017-Aug-14 20:49N 32°42' W 117°09'0 0.0
2017-Aug-14 20:30N 32°42' W 117°09'0 0.0
2017-Aug-14 17:55N 32°42' W 117°09'0 0.3
2017-Aug-14 17:22N 32°42' W 117°09'0 0.3
2017-Aug-14 16:53N 32°42' W 117°09'2 3.9
2017-Aug-14 16:26N 32°40' W 117°08'0 0.8
2017-Aug-14 15:55N 32°40' W 117°07'0 0.7
2017-Aug-14 15:30N 32°40' W 117°08'2 1.8
2017-Aug-14 14:31N 32°42' W 117°09'0 0.1
2017-Aug-14 13:36N 32°42' W 117°09'1 7.8
2017-Aug-14 13:28N 32°41' W 117°08'2 4.1
2017-Aug-14 13:00N 32°39' W 117°07'1 3.0
2017-Aug-14 12:30N 32°41' W 117°08'1 0.4
2017-Aug-14 08:58N 32°42' W 117°09'0 0.1
2017-Aug-14 08:27N 32°42' W 117°09'0 0.1
2017-Aug-14 07:56N 32°42' W 117°09'0 0.0
2017-Aug-14 06:55N 32°42' W 117°09'0 0.1
2017-Aug-14 06:30N 32°42' W 117°09'0 0.1
2017-Aug-14 05:57N 32°42' W 117°09'0 0.0
2017-Aug-14 05:30N 32°42' W 117°09'0 0.0
2017-Aug-14 05:00N 32°42' W 117°09'0 0.0
2017-Aug-14 04:29N 32°42' W 117°09'0 0.0
2017-Aug-14 03:39N 32°42' W 117°09'0 0.0
2017-Aug-14 03:30N 32°42' W 117°09'0 0.0
2017-Aug-14 03:00N 32°42' W 117°09'0 0.0
2017-Aug-14 01:16N 32°42' W 117°09'0 0.0
2017-Aug-14 00:19N 32°42' W 117°09'0 0.0
2017-Aug-14 00:00N 32°42' W 117°09'0 0.0
2017-Aug-13 23:30N 32°42' W 117°09'0 0.0
2017-Aug-13 23:00N 32°42' W 117°09'0 0.0
2017-Aug-13 22:29N 32°42' W 117°09'0 0.0
2017-Aug-13 21:54N 32°42' W 117°09'0 0.0
2017-Aug-13 21:03N 32°42' W 117°09'0 0.0
2017-Aug-13 21:00N 32°42' W 117°09'0 0.0
2017-Aug-13 20:30N 32°42' W 117°09'0 0.0
2017-Aug-13 10:39N 32°42' W 117°09'0 0.0
2017-Aug-13 05:42N 32°42' W 117°09'0 0.0
2017-Aug-13 05:29N 32°42' W 117°09'0 0.0
2017-Aug-13 05:00N 32°42' W 117°09'0 0.0
2017-Aug-13 04:24N 32°42' W 117°09'0 0.0
2017-Aug-13 01:31N 32°42' W 117°09'0 7.4
2017-Aug-13 01:29N 32°41' W 117°09'3 2.3
2017-Aug-13 00:23N 32°39' W 117°07'2 3.4
2017-Aug-12 23:53N 32°41' W 117°08'1 2.1
2017-Aug-12 23:18N 32°42' W 117°09'0 0.0
2017-Aug-12 21:47N 32°42' W 117°09'0 0.0
2017-Aug-12 21:22N 32°42' W 117°09'0 0.0
2017-Aug-12 20:58N 32°42' W 117°09'0 0.0
2017-Aug-12 14:10N 32°42' W 117°09'1 7.9
2017-Aug-12 14:00N 32°41' W 117°08'1 1.3
2017-Aug-12 13:14N 32°40' W 117°08'2 8.6
2017-Aug-12 12:59N 32°42' W 117°09'0 0.1
2017-Aug-12 09:38N 32°42' W 117°09'0 0.0
2017-Aug-12 05:15N 32°42' W 117°09'0 0.0
2017-Aug-12 04:17N 32°42' W 117°09'0 0.0
2017-Aug-12 03:39N 32°42' W 117°09'0 0.0
2017-Aug-12 03:30N 32°42' W 117°09'0 0.0
2017-Aug-12 01:05N 32°42' W 117°09'0 0.0
2017-Aug-12 01:00N 32°42' W 117°09'  

Dump ship's entire track history